This is the latest recevied weather packets stored in our database for station/object K5RWS. If no packets are shown the sender has not sent any weather packets the latest 10 day(s).
| Time | Temp. | Humidity | Pressure | Rain* | Wind** | Luminosity | Snow |
|---|---|---|---|---|---|---|---|
| 1777552283 | 12.22° C | 18% | 1017 hPa | 0 mm | - | 4 W/m² | - |
| 1777551980 | 12.78° C | 18% | 1016.9 hPa | 0 mm | - | 3 W/m² | - |
| 1777551677 | 12.78° C | 18% | 1016.7 hPa | 0 mm | - | 2 W/m² | - |
| 1777551375 | 12.78° C | 18% | 1016.7 hPa | 0 mm | - | 1 W/m² | - |
| 1777551071 | 12.78° C | 18% | 1016.7 hPa | 0 mm | - | 1 W/m² | - |
| 1777550769 | 12.78° C | 18% | 1016.6 hPa | 0 mm | - | 0 W/m² | - |
| 1777550465 | 13.33° C | 18% | 1016.4 hPa | 0 mm | - | 0 W/m² | - |
| 1777550161 | 13.33° C | 17% | 1016.6 hPa | 0 mm | - | 0 W/m² | - |
| 1777549857 | 13.33° C | 17% | 1016.7 hPa | 0 mm | - | 0 W/m² | - |
| 1777549554 | 13.89° C | 17% | 1016.4 hPa | 0 mm | - | 0 W/m² | - |
| 1777549250 | 13.89° C | 16% | 1016.8 hPa | 0 mm | - | 0 W/m² | - |
| 1777548946 | 13.89° C | 16% | 1016.9 hPa | 0 mm | - | 0 W/m² | - |
| 1777548643 | 14.44° C | 16% | 1016.8 hPa | 0 mm | - | 0 W/m² | - |
| 1777548340 | 13.89° C | 17% | 1017 hPa | 0 mm | - | 0 W/m² | - |
| 1777548037 | 14.44° C | 16% | 1016.7 hPa | 0 mm | - | 0 W/m² | - |
| 1777547733 | 13.89° C | 18% | 1016.8 hPa | 0 mm | - | 0 W/m² | - |
| 1777547429 | 13.89° C | 18% | 1016.6 hPa | 0 mm | - | 0 W/m² | - |
| 1777547127 | 13.89° C | 18% | 1016.4 hPa | 0 mm | - | 0 W/m² | - |
| 1777546824 | 13.89° C | 18% | 1016.4 hPa | 0 mm | - | 0 W/m² | - |
| 1777546520 | 13.89° C | 17% | 1016.3 hPa | 0 mm | - | 0 W/m² | - |
| 1777546218 | 13.89° C | 18% | 1016.3 hPa | 0 mm | - | 0 W/m² | - |
| 1777545915 | 13.89° C | 17% | 1016.4 hPa | 0 mm | - | 0 W/m² | - |
* Rain latest hour (hover to see other rain measurements)
** Current wind speed in m/s (hover to see current wind gust speed)